sensor_id;sensor_type;location;lat;lon;timestamp;pressure;altitude;pressure_sealevel;temperature;humidity
82512;BME280;72152;65.012;25.464;2024-01-07T00:01:01;102662.63;;;-17.49;59.67
82512;BME280;72152;65.012;25.464;2024-01-07T00:04:07;102669.66;;;-17.43;59.72
82512;BME280;72152;65.012;25.464;2024-01-07T00:07:11;102671.16;;;-17.38;59.89
82512;BME280;72152;65.012;25.464;2024-01-07T00:10:29;102675.67;;;-17.33;59.88
82512;BME280;72152;65.012;25.464;2024-01-07T00:13:42;102672.55;;;-17.30;60.06
82512;BME280;72152;65.012;25.464;2024-01-07T00:16:47;102674.14;;;-17.26;59.73
82512;BME280;72152;65.012;25.464;2024-01-07T00:19:49;102669.11;;;-17.23;59.85
82512;BME280;72152;65.012;25.464;2024-01-07T00:22:53;102665.64;;;-17.22;59.91
82512;BME280;72152;65.012;25.464;2024-01-07T00:26:04;102663.46;;;-17.21;59.99
82512;BME280;72152;65.012;25.464;2024-01-07T00:29:17;102660.99;;;-17.21;59.98
82512;BME280;72152;65.012;25.464;2024-01-07T00:32:21;102661.04;;;-17.18;59.83
82512;BME280;72152;65.012;25.464;2024-01-07T00:35:26;102659.12;;;-17.19;60.14
82512;BME280;72152;65.012;25.464;2024-01-07T00:38:31;102659.48;;;-17.15;60.31
82512;BME280;72152;65.012;25.464;2024-01-07T00:41:43;102662.12;;;-17.14;60.41
82512;BME280;72152;65.012;25.464;2024-01-07T00:44:51;102657.86;;;-17.15;60.49
82512;BME280;72152;65.012;25.464;2024-01-07T00:47:57;102658.83;;;-17.11;60.86
82512;BME280;72152;65.012;25.464;2024-01-07T00:51:06;102667.27;;;-17.09;60.78
82512;BME280;72152;65.012;25.464;2024-01-07T00:54:13;102665.02;;;-17.01;60.70
82512;BME280;72152;65.012;25.464;2024-01-07T00:57:21;102667.69;;;-16.95;61.09
82512;BME280;72152;65.012;25.464;2024-01-07T01:00:41;102670.56;;;-16.88;60.97
82512;BME280;72152;65.012;25.464;2024-01-07T01:03:53;102670.41;;;-16.82;60.91
82512;BME280;72152;65.012;25.464;2024-01-07T01:07:05;102657.78;;;-16.77;61.11
82512;BME280;72152;65.012;25.464;2024-01-07T01:10:21;102663.69;;;-16.77;61.40
82512;BME280;72152;65.012;25.464;2024-01-07T01:13:30;102662.98;;;-16.77;61.60
82512;BME280;72152;65.012;25.464;2024-01-07T01:16:40;102661.55;;;-16.75;61.22
82512;BME280;72152;65.012;25.464;2024-01-07T01:19:46;102664.34;;;-16.76;61.32
82512;BME280;72152;65.012;25.464;2024-01-07T01:22:50;102663.98;;;-16.81;61.43
82512;BME280;72152;65.012;25.464;2024-01-07T01:25:49;102664.85;;;-16.83;61.42
82512;BME280;72152;65.012;25.464;2024-01-07T01:28:51;102665.63;;;-16.84;61.57
82512;BME280;72152;65.012;25.464;2024-01-07T01:32:02;102663.21;;;-16.79;61.61
82512;BME280;72152;65.012;25.464;2024-01-07T01:35:14;102660.49;;;-16.73;61.83
82512;BME280;72152;65.012;25.464;2024-01-07T01:38:16;102649.80;;;-16.64;62.05
82512;BME280;72152;65.012;25.464;2024-01-07T01:41:23;102643.25;;;-16.60;62.04
82512;BME280;72152;65.012;25.464;2024-01-07T01:44:29;102643.62;;;-16.60;61.99
82512;BME280;72152;65.012;25.464;2024-01-07T01:47:39;102645.48;;;-16.55;62.25
82512;BME280;72152;65.012;25.464;2024-01-07T01:50:41;102649.69;;;-16.43;62.49
82512;BME280;72152;65.012;25.464;2024-01-07T01:53:50;102648.19;;;-16.31;62.43
82512;BME280;72152;65.012;25.464;2024-01-07T01:57:02;102644.27;;;-16.21;62.42
82512;BME280;72152;65.012;25.464;2024-01-07T02:00:14;102642.12;;;-16.13;62.39
82512;BME280;72152;65.012;25.464;2024-01-07T02:03:29;102657.30;;;-16.08;62.30
82512;BME280;72152;65.012;25.464;2024-01-07T02:06:37;102660.09;;;-16.05;62.32
82512;BME280;72152;65.012;25.464;2024-01-07T02:09:49;102667.33;;;-16.01;62.42
82512;BME280;72152;65.012;25.464;2024-01-07T02:12:59;102662.73;;;-15.92;62.47
82512;BME280;72152;65.012;25.464;2024-01-07T02:16:11;102652.09;;;-15.91;62.05
82512;BME280;72152;65.012;25.464;2024-01-07T02:19:16;102652.71;;;-15.94;62.28
82512;BME280;72152;65.012;25.464;2024-01-07T02:22:24;102668.89;;;-15.91;62.54
82512;BME280;72152;65.012;25.464;2024-01-07T02:25:34;102661.87;;;-15.86;62.26
82512;BME280;72152;65.012;25.464;2024-01-07T02:28:42;102647.48;;;-15.80;62.42
82512;BME280;72152;65.012;25.464;2024-01-07T02:31:45;102641.94;;;-15.82;62.27
82512;BME280;72152;65.012;25.464;2024-01-07T02:34:55;102639.12;;;-15.84;62.50
82512;BME280;72152;65.012;25.464;2024-01-07T02:37:59;102633.78;;;-15.84;62.45
82512;BME280;72152;65.012;25.464;2024-01-07T02:41:03;102632.93;;;-15.83;62.70
82512;BME280;72152;65.012;25.464;2024-01-07T02:44:06;102635.41;;;-15.82;62.61
82512;BME280;72152;65.012;25.464;2024-01-07T02:47:11;102636.65;;;-15.83;62.45
82512;BME280;72152;65.012;25.464;2024-01-07T02:50:19;102624.64;;;-15.84;62.65
82512;BME280;72152;65.012;25.464;2024-01-07T02:53:30;102598.93;;;-15.86;62.66
82512;BME280;72152;65.012;25.464;2024-01-07T02:56:42;102616.00;;;-15.89;63.07
82512;BME280;72152;65.012;25.464;2024-01-07T02:59:47;102618.89;;;-15.92;62.99
82512;BME280;72152;65.012;25.464;2024-01-07T03:02:56;102608.98;;;-15.93;63.07
82512;BME280;72152;65.012;25.464;2024-01-07T03:06:01;102631.11;;;-15.96;63.39
82512;BME280;72152;65.012;25.464;2024-01-07T03:09:10;102625.40;;;-15.94;63.38
82512;BME280;72152;65.012;25.464;2024-01-07T03:12:28;102629.04;;;-15.89;63.54
82512;BME280;72152;65.012;25.464;2024-01-07T03:15:36;102620.15;;;-15.85;63.60
82512;BME280;72152;65.012;25.464;2024-01-07T03:18:45;102625.89;;;-15.82;63.56
82512;BME280;72152;65.012;25.464;2024-01-07T03:21:55;102634.02;;;-15.76;63.74
82512;BME280;72152;65.012;25.464;2024-01-07T03:25:00;102637.27;;;-15.70;63.74
82512;BME280;72152;65.012;25.464;2024-01-07T03:28:10;102629.08;;;-15.66;63.85
82512;BME280;72152;65.012;25.464;2024-01-07T03:31:20;102623.06;;;-15.63;63.68
82512;BME280;72152;65.012;25.464;2024-01-07T03:34:32;102620.48;;;-15.61;63.96
82512;BME280;72152;65.012;25.464;2024-01-07T03:37:41;102618.94;;;-15.57;63.59
82512;BME280;72152;65.012;25.464;2024-01-07T03:40:49;102613.30;;;-15.56;63.55
82512;BME280;72152;65.012;25.464;2024-01-07T03:43:57;102618.79;;;-15.54;63.87
82512;BME280;72152;65.012;25.464;2024-01-07T03:46:59;102618.63;;;-15.55;64.00
82512;BME280;72152;65.012;25.464;2024-01-07T03:50:08;102618.84;;;-15.50;64.04
82512;BME280;72152;65.012;25.464;2024-01-07T03:53:13;102613.20;;;-15.40;64.07
82512;BME280;72152;65.012;25.464;2024-01-07T03:56:26;102608.70;;;-15.32;64.25
82512;BME280;72152;65.012;25.464;2024-01-07T03:59:30;102604.71;;;-15.19;64.13
82512;BME280;72152;65.012;25.464;2024-01-07T04:02:38;102613.19;;;-15.11;64.25
82512;BME280;72152;65.012;25.464;2024-01-07T04:05:44;102617.64;;;-15.06;64.23
82512;BME280;72152;65.012;25.464;2024-01-07T04:08:48;102619.77;;;-15.00;64.42
82512;BME280;72152;65.012;25.464;2024-01-07T04:11:55;102626.45;;;-14.94;64.37
82512;BME280;72152;65.012;25.464;2024-01-07T04:15:02;102613.02;;;-14.86;64.41
82512;BME280;72152;65.012;25.464;2024-01-07T04:18:14;102593.61;;;-14.78;64.54
82512;BME280;72152;65.012;25.464;2024-01-07T04:21:23;102598.73;;;-14.73;64.41
82512;BME280;72152;65.012;25.464;2024-01-07T04:24:26;102599.50;;;-14.72;64.39
82512;BME280;72152;65.012;25.464;2024-01-07T04:27:35;102596.90;;;-14.67;64.31
82512;BME280;72152;65.012;25.464;2024-01-07T04:30:43;102591.90;;;-14.60;64.39
82512;BME280;72152;65.012;25.464;2024-01-07T04:33:49;102588.86;;;-14.58;64.44
82512;BME280;72152;65.012;25.464;2024-01-07T04:36:54;102597.98;;;-14.60;64.13
82512;BME280;72152;65.012;25.464;2024-01-07T04:40:05;102584.27;;;-14.62;63.99
82512;BME280;72152;65.012;25.464;2024-01-07T04:43:15;102582.45;;;-14.66;63.92
82512;BME280;72152;65.012;25.464;2024-01-07T04:46:18;102592.82;;;-14.76;63.85
82512;BME280;72152;65.012;25.464;2024-01-07T04:49:23;102584.30;;;-14.82;64.03
82512;BME280;72152;65.012;25.464;2024-01-07T04:52:26;102590.05;;;-14.89;63.84
82512;BME280;72152;65.012;25.464;2024-01-07T04:55:32;102581.34;;;-14.98;63.90
82512;BME280;72152;65.012;25.464;2024-01-07T04:58:32;102585.39;;;-14.99;63.91
82512;BME280;72152;65.012;25.464;2024-01-07T05:01:35;102585.61;;;-15.03;64.25
82512;BME280;72152;65.012;25.464;2024-01-07T05:04:43;102584.65;;;-15.06;63.94
82512;BME280;72152;65.012;25.464;2024-01-07T05:07:47;102600.77;;;-15.16;64.12
82512;BME280;72152;65.012;25.464;2024-01-07T05:10:55;102613.70;;;-15.18;64.36
82512;BME280;72152;65.012;25.464;2024-01-07T05:13:59;102621.77;;;-15.17;64.20
82512;BME280;72152;65.012;25.464;2024-01-07T05:17:00;102624.64;;;-15.17;64.24
82512;BME280;72152;65.012;25.464;2024-01-07T05:20:10;102624.02;;;-15.14;64.35
82512;BME280;72152;65.012;25.464;2024-01-07T05:23:15;102619.14;;;-15.12;64.20
82512;BME280;72152;65.012;25.464;2024-01-07T05:26:18;102615.03;;;-15.10;64.48
82512;BME280;72152;65.012;25.464;2024-01-07T05:29:26;102619.91;;;-15.06;64.67
82512;BME280;72152;65.012;25.464;2024-01-07T05:32:33;102624.55;;;-15.00;64.46
82512;BME280;72152;65.012;25.464;2024-01-07T05:35:40;102627.98;;;-14.99;64.23
82512;BME280;72152;65.012;25.464;2024-01-07T05:38:44;102627.23;;;-14.95;64.46
82512;BME280;72152;65.012;25.464;2024-01-07T05:41:54;102628.60;;;-14.93;64.31
82512;BME280;72152;65.012;25.464;2024-01-07T05:44:59;102632.08;;;-14.92;64.48
82512;BME280;72152;65.012;25.464;2024-01-07T05:48:07;102637.48;;;-14.92;64.22
82512;BME280;72152;65.012;25.464;2024-01-07T05:51:16;102642.51;;;-14.95;64.20
82512;BME280;72152;65.012;25.464;2024-01-07T05:54:24;102640.77;;;-15.00;64.29
82512;BME280;72152;65.012;25.464;2024-01-07T05:57:32;102634.92;;;-14.99;64.29
82512;BME280;72152;65.012;25.464;2024-01-07T06:00:46;102629.98;;;-14.96;64.36
82512;BME280;72152;65.012;25.464;2024-01-07T06:03:54;102627.65;;;-14.93;64.33
82512;BME280;72152;65.012;25.464;2024-01-07T06:06:57;102632.28;;;-14.94;64.26
82512;BME280;72152;65.012;25.464;2024-01-07T06:10:07;102634.80;;;-14.96;64.38
82512;BME280;72152;65.012;25.464;2024-01-07T06:13:10;102631.08;;;-14.94;64.09
82512;BME280;72152;65.012;25.464;2024-01-07T06:16:29;102629.89;;;-14.93;64.30
82512;BME280;72152;65.012;25.464;2024-01-07T06:19:38;102633.60;;;-14.92;64.18
82512;BME280;72152;65.012;25.464;2024-01-07T06:22:50;102631.23;;;-14.92;64.01
82512;BME280;72152;65.012;25.464;2024-01-07T06:26:04;102631.38;;;-14.93;64.03
82512;BME280;72152;65.012;25.464;2024-01-07T06:29:11;102633.10;;;-14.96;63.75
82512;BME280;72152;65.012;25.464;2024-01-07T06:32:26;102632.35;;;-14.99;63.93
82512;BME280;72152;65.012;25.464;2024-01-07T06:35:36;102636.16;;;-14.98;63.91
82512;BME280;72152;65.012;25.464;2024-01-07T06:38:44;102642.05;;;-14.94;63.88
82512;BME280;72152;65.012;25.464;2024-01-07T06:41:49;102642.62;;;-14.95;63.93
82512;BME280;72152;65.012;25.464;2024-01-07T06:44:56;102637.77;;;-14.91;64.22
82512;BME280;72152;65.012;25.464;2024-01-07T06:48:00;102636.29;;;-14.94;64.00
82512;BME280;72152;65.012;25.464;2024-01-07T06:51:15;102635.16;;;-14.94;64.38
82512;BME280;72152;65.012;25.464;2024-01-07T06:54:24;102638.23;;;-14.87;64.47
82512;BME280;72152;65.012;25.464;2024-01-07T06:57:27;102650.91;;;-14.85;64.47
82512;BME280;72152;65.012;25.464;2024-01-07T07:00:37;102655.55;;;-14.85;64.40
82512;BME280;72152;65.012;25.464;2024-01-07T07:03:48;102665.06;;;-14.98;63.38
82512;BME280;72152;65.012;25.464;2024-01-07T07:06:54;102657.05;;;-15.12;63.26
82512;BME280;72152;65.012;25.464;2024-01-07T07:13:29;102646.04;;;-15.13;63.46
82512;BME280;72152;65.012;25.464;2024-01-07T07:16:38;102640.14;;;-15.09;63.47
82512;BME280;72152;65.012;25.464;2024-01-07T07:19:43;102649.59;;;-15.00;63.49
82512;BME280;72152;65.012;25.464;2024-01-07T07:22:54;102645.05;;;-14.93;63.41
82512;BME280;72152;65.012;25.464;2024-01-07T07:25:58;102643.83;;;-14.83;63.37
82512;BME280;72152;65.012;25.464;2024-01-07T07:29:03;102640.89;;;-14.75;63.54
82512;BME280;72152;65.012;25.464;2024-01-07T07:32:13;102642.84;;;-14.66;63.69
82512;BME280;72152;65.012;25.464;2024-01-07T07:35:30;102640.13;;;-14.59;63.62
82512;BME280;72152;65.012;25.464;2024-01-07T07:38:36;102633.77;;;-14.52;63.94
82512;BME280;72152;65.012;25.464;2024-01-07T07:41:36;102635.75;;;-14.40;64.01
82512;BME280;72152;65.012;25.464;2024-01-07T07:44:44;102644.35;;;-14.29;64.07
82512;BME280;72152;65.012;25.464;2024-01-07T07:47:50;102642.33;;;-14.17;64.34
82512;BME280;72152;65.012;25.464;2024-01-07T07:51:01;102646.55;;;-14.08;64.51
82512;BME280;72152;65.012;25.464;2024-01-07T07:54:13;102638.05;;;-13.97;64.61
82512;BME280;72152;65.012;25.464;2024-01-07T07:57:16;102649.45;;;-13.90;64.61
82512;BME280;72152;65.012;25.464;2024-01-07T08:00:34;102653.38;;;-13.80;64.62
82512;BME280;72152;65.012;25.464;2024-01-07T08:03:38;102653.45;;;-13.74;64.64
82512;BME280;72152;65.012;25.464;2024-01-07T08:06:48;102663.25;;;-13.73;64.52
82512;BME280;72152;65.012;25.464;2024-01-07T08:09:51;102663.17;;;-13.73;64.68
82512;BME280;72152;65.012;25.464;2024-01-07T08:12:58;102665.80;;;-13.70;64.54
82512;BME280;72152;65.012;25.464;2024-01-07T08:16:16;102674.51;;;-13.68;64.50
82512;BME280;72152;65.012;25.464;2024-01-07T08:19:17;102679.23;;;-13.64;64.54
82512;BME280;72152;65.012;25.464;2024-01-07T08:22:21;102677.95;;;-13.58;64.50
82512;BME280;72152;65.012;25.464;2024-01-07T08:25:24;102679.45;;;-13.54;64.31
82512;BME280;72152;65.012;25.464;2024-01-07T08:28:34;102692.45;;;-13.50;64.27
82512;BME280;72152;65.012;25.464;2024-01-07T08:31:38;102692.14;;;-13.43;64.48
82512;BME280;72152;65.012;25.464;2024-01-07T08:34:42;102686.23;;;-13.43;64.52
82512;BME280;72152;65.012;25.464;2024-01-07T08:37:51;102686.93;;;-13.39;64.49
82512;BME280;72152;65.012;25.464;2024-01-07T08:40:59;102690.56;;;-13.35;64.16
82512;BME280;72152;65.012;25.464;2024-01-07T08:44:09;102690.21;;;-13.30;64.51
82512;BME280;72152;65.012;25.464;2024-01-07T08:47:22;102687.82;;;-13.26;64.51
82512;BME280;72152;65.012;25.464;2024-01-07T08:50:27;102681.86;;;-13.18;64.71
82512;BME280;72152;65.012;25.464;2024-01-07T08:53:41;102683.08;;;-13.05;64.55
82512;BME280;72152;65.012;25.464;2024-01-07T08:56:44;102686.04;;;-12.99;64.50
82512;BME280;72152;65.012;25.464;2024-01-07T08:59:46;102681.16;;;-12.97;64.25
82512;BME280;72152;65.012;25.464;2024-01-07T09:02:54;102683.41;;;-12.91;64.09
82512;BME280;72152;65.012;25.464;2024-01-07T09:06:02;102681.53;;;-12.91;64.20
82512;BME280;72152;65.012;25.464;2024-01-07T09:09:07;102679.31;;;-12.90;64.12
82512;BME280;72152;65.012;25.464;2024-01-07T09:12:14;102678.20;;;-12.89;64.36
82512;BME280;72152;65.012;25.464;2024-01-07T09:15:26;102678.34;;;-12.84;64.33
82512;BME280;72152;65.012;25.464;2024-01-07T09:18:33;102685.96;;;-12.80;64.57
82512;BME280;72152;65.012;25.464;2024-01-07T09:21:46;102690.61;;;-12.79;64.47
82512;BME280;72152;65.012;25.464;2024-01-07T09:24:55;102689.34;;;-12.76;64.60
82512;BME280;72152;65.012;25.464;2024-01-07T09:27:58;102684.66;;;-12.71;64.56
82512;BME280;72152;65.012;25.464;2024-01-07T09:31:07;102676.64;;;-12.66;64.68
82512;BME280;72152;65.012;25.464;2024-01-07T09:34:12;102676.19;;;-12.57;64.63
82512;BME280;72152;65.012;25.464;2024-01-07T09:37:19;102686.79;;;-12.47;64.70
82512;BME280;72152;65.012;25.464;2024-01-07T09:40:35;102690.02;;;-12.44;64.61
82512;BME280;72152;65.012;25.464;2024-01-07T09:43:43;102698.27;;;-12.41;64.46
82512;BME280;72152;65.012;25.464;2024-01-07T09:46:51;102695.60;;;-12.42;64.58
82512;BME280;72152;65.012;25.464;2024-01-07T09:49:59;102694.34;;;-12.42;64.47
82512;BME280;72152;65.012;25.464;2024-01-07T09:53:10;102696.81;;;-12.42;64.62
82512;BME280;72152;65.012;25.464;2024-01-07T09:56:16;102690.99;;;-12.37;64.77
82512;BME280;72152;65.012;25.464;2024-01-07T09:59:23;102694.48;;;-12.27;65.03
82512;BME280;72152;65.012;25.464;2024-01-07T10:02:32;102688.38;;;-12.14;64.65
82512;BME280;72152;65.012;25.464;2024-01-07T10:05:34;102680.95;;;-12.04;64.65
82512;BME280;72152;65.012;25.464;2024-01-07T10:08:41;102688.75;;;-11.94;64.64
82512;BME280;72152;65.012;25.464;2024-01-07T10:11:46;102686.89;;;-11.85;64.92
82512;BME280;72152;65.012;25.464;2024-01-07T10:15:06;102683.70;;;-11.76;64.54
82512;BME280;72152;65.012;25.464;2024-01-07T10:18:18;102684.67;;;-11.68;64.54
82512;BME280;72152;65.012;25.464;2024-01-07T10:21:23;102687.38;;;-11.68;64.43
82512;BME280;72152;65.012;25.464;2024-01-07T10:24:26;102693.52;;;-11.65;64.68
82512;BME280;72152;65.012;25.464;2024-01-07T10:27:33;102693.56;;;-11.60;64.76
82512;BME280;72152;65.012;25.464;2024-01-07T10:30:48;102687.60;;;-11.54;64.84
82512;BME280;72152;65.012;25.464;2024-01-07T10:33:55;102686.14;;;-11.51;64.77
82512;BME280;72152;65.012;25.464;2024-01-07T10:36:55;102684.14;;;-11.44;65.06
82512;BME280;72152;65.012;25.464;2024-01-07T10:39:58;102675.94;;;-11.36;64.95
82512;BME280;72152;65.012;25.464;2024-01-07T10:46:17;102668.77;;;-11.23;65.14
82512;BME280;72152;65.012;25.464;2024-01-07T10:49:33;102667.58;;;-11.16;64.99
82512;BME280;72152;65.012;25.464;2024-01-07T10:52:39;102666.16;;;-11.13;65.04
82512;BME280;72152;65.012;25.464;2024-01-07T10:55:48;102666.84;;;-11.09;65.66
82512;BME280;72152;65.012;25.464;2024-01-07T10:59:00;102660.68;;;-11.03;65.43
82512;BME280;72152;65.012;25.464;2024-01-07T11:02:09;102653.52;;;-11.03;65.48
82512;BME280;72152;65.012;25.464;2024-01-07T11:05:23;102648.44;;;-11.00;65.46
82512;BME280;72152;65.012;25.464;2024-01-07T11:08:33;102643.05;;;-10.99;65.82
82512;BME280;72152;65.012;25.464;2024-01-07T11:11:41;102644.25;;;-10.96;65.77
82512;BME280;72152;65.012;25.464;2024-01-07T11:14:50;102646.98;;;-10.93;66.19
82512;BME280;72152;65.012;25.464;2024-01-07T11:18:00;102653.09;;;-10.90;65.83
82512;BME280;72152;65.012;25.464;2024-01-07T11:21:06;102655.25;;;-10.88;65.80
82512;BME280;72152;65.012;25.464;2024-01-07T11:24:16;102655.63;;;-10.87;65.71
82512;BME280;72152;65.012;25.464;2024-01-07T11:27:41;102656.57;;;-10.88;65.61
82512;BME280;72152;65.012;25.464;2024-01-07T11:30:52;102645.55;;;-10.86;65.61
82512;BME280;72152;65.012;25.464;2024-01-07T11:34:05;102646.44;;;-10.89;65.43
82512;BME280;72152;65.012;25.464;2024-01-07T11:37:10;102643.92;;;-10.93;65.38
82512;BME280;72152;65.012;25.464;2024-01-07T11:40:24;102643.08;;;-10.91;65.64
82512;BME280;72152;65.012;25.464;2024-01-07T11:43:31;102634.91;;;-10.90;65.59
82512;BME280;72152;65.012;25.464;2024-01-07T11:46:35;102629.41;;;-10.91;65.76
82512;BME280;72152;65.012;25.464;2024-01-07T11:49:43;102625.20;;;-10.93;65.72
82512;BME280;72152;65.012;25.464;2024-01-07T11:52:46;102616.27;;;-10.95;65.94
82512;BME280;72152;65.012;25.464;2024-01-07T11:55:54;102612.20;;;-10.93;66.02
82512;BME280;72152;65.012;25.464;2024-01-07T11:59:05;102605.38;;;-10.91;66.05
82512;BME280;72152;65.012;25.464;2024-01-07T12:02:15;102596.15;;;-10.90;66.10
82512;BME280;72152;65.012;25.464;2024-01-07T12:05:16;102582.73;;;-10.87;66.41
82512;BME280;72152;65.012;25.464;2024-01-07T12:08:14;102580.95;;;-10.85;66.80
82512;BME280;72152;65.012;25.464;2024-01-07T12:11:23;102580.85;;;-10.81;67.10
82512;BME280;72152;65.012;25.464;2024-01-07T12:14:25;102585.66;;;-10.78;66.97
82512;BME280;72152;65.012;25.464;2024-01-07T12:17:32;102587.20;;;-10.76;66.91
82512;BME280;72152;65.012;25.464;2024-01-07T12:20:39;102581.80;;;-10.71;66.92
82512;BME280;72152;65.012;25.464;2024-01-07T12:23:47;102579.62;;;-10.66;67.18
82512;BME280;72152;65.012;25.464;2024-01-07T12:26:51;102572.64;;;-10.62;67.02
82512;BME280;72152;65.012;25.464;2024-01-07T12:29:59;102561.92;;;-10.60;66.77
82512;BME280;72152;65.012;25.464;2024-01-07T12:33:07;102559.53;;;-10.56;66.71
82512;BME280;72152;65.012;25.464;2024-01-07T12:36:19;102557.72;;;-10.53;66.95
82512;BME280;72152;65.012;25.464;2024-01-07T12:39:27;102556.92;;;-10.51;67.33
82512;BME280;72152;65.012;25.464;2024-01-07T12:42:36;102554.78;;;-10.49;67.13
82512;BME280;72152;65.012;25.464;2024-01-07T12:45:45;102545.63;;;-10.48;67.17
82512;BME280;72152;65.012;25.464;2024-01-07T12:48:43;102540.50;;;-10.48;67.28
82512;BME280;72152;65.012;25.464;2024-01-07T12:51:42;102543.04;;;-10.46;67.62
82512;BME280;72152;65.012;25.464;2024-01-07T12:54:43;102537.13;;;-10.46;67.24
82512;BME280;72152;65.012;25.464;2024-01-07T12:57:44;102536.16;;;-10.46;67.67
82512;BME280;72152;65.012;25.464;2024-01-07T13:00:45;102529.86;;;-10.43;67.65
82512;BME280;72152;65.012;25.464;2024-01-07T13:04:04;102522.71;;;-10.39;68.17
82512;BME280;72152;65.012;25.464;2024-01-07T13:07:09;102516.08;;;-10.39;67.83
82512;BME280;72152;65.012;25.464;2024-01-07T13:10:11;102513.35;;;-10.43;67.87
82512;BME280;72152;65.012;25.464;2024-01-07T13:13:13;102513.36;;;-10.42;68.24
82512;BME280;72152;65.012;25.464;2024-01-07T13:16:20;102509.39;;;-10.41;68.33
82512;BME280;72152;65.012;25.464;2024-01-07T13:19:27;102517.48;;;-10.38;68.34
82512;BME280;72152;65.012;25.464;2024-01-07T13:22:31;102519.33;;;-10.34;68.75
82512;BME280;72152;65.012;25.464;2024-01-07T13:25:36;102515.80;;;-10.32;68.43
82512;BME280;72152;65.012;25.464;2024-01-07T13:31:55;102504.84;;;-10.28;68.33
82512;BME280;72152;65.012;25.464;2024-01-07T13:34:56;102501.15;;;-10.27;68.07
82512;BME280;72152;65.012;25.464;2024-01-07T13:38:05;102498.96;;;-10.26;68.34
82512;BME280;72152;65.012;25.464;2024-01-07T13:41:12;102493.73;;;-10.27;68.44
82512;BME280;72152;65.012;25.464;2024-01-07T13:44:17;102494.37;;;-10.26;68.57
82512;BME280;72152;65.012;25.464;2024-01-07T13:47:24;102487.10;;;-10.26;68.70
82512;BME280;72152;65.012;25.464;2024-01-07T13:50:39;102486.65;;;-10.22;68.75
82512;BME280;72152;65.012;25.464;2024-01-07T13:53:52;102486.66;;;-10.20;68.47
82512;BME280;72152;65.012;25.464;2024-01-07T13:57:03;102495.31;;;-10.19;68.44
82512;BME280;72152;65.012;25.464;2024-01-07T14:00:07;102499.67;;;-10.20;67.99
82512;BME280;72152;65.012;25.464;2024-01-07T14:03:11;102500.62;;;-10.20;68.46
82512;BME280;72152;65.012;25.464;2024-01-07T14:06:21;102490.17;;;-10.18;68.49
82512;BME280;72152;65.012;25.464;2024-01-07T14:09:27;102482.59;;;-10.14;68.37
82512;BME280;72152;65.012;25.464;2024-01-07T14:12:38;102461.66;;;-10.11;68.53
82512;BME280;72152;65.012;25.464;2024-01-07T14:15:47;102449.27;;;-10.12;68.16
82512;BME280;72152;65.012;25.464;2024-01-07T14:18:50;102426.54;;;-10.16;68.43
82512;BME280;72152;65.012;25.464;2024-01-07T14:21:55;102429.13;;;-10.21;68.98
82512;BME280;72152;65.012;25.464;2024-01-07T14:25:05;102453.46;;;-10.26;68.84
82512;BME280;72152;65.012;25.464;2024-01-07T14:28:14;102459.65;;;-10.23;69.18
82512;BME280;72152;65.012;25.464;2024-01-07T14:31:21;102455.31;;;-10.16;69.41
82512;BME280;72152;65.012;25.464;2024-01-07T14:34:27;102451.93;;;-10.11;69.52
82512;BME280;72152;65.012;25.464;2024-01-07T14:37:33;102451.49;;;-10.07;69.16
82512;BME280;72152;65.012;25.464;2024-01-07T14:40:40;102429.73;;;-10.05;68.95
82512;BME280;72152;65.012;25.464;2024-01-07T14:43:49;102412.02;;;-10.07;68.55
82512;BME280;72152;65.012;25.464;2024-01-07T14:46:53;102403.80;;;-10.14;68.57
82512;BME280;72152;65.012;25.464;2024-01-07T14:50:02;102396.48;;;-10.20;68.53
82512;BME280;72152;65.012;25.464;2024-01-07T14:53:09;102390.08;;;-10.29;68.97
82512;BME280;72152;65.012;25.464;2024-01-07T14:56:11;102391.45;;;-10.34;69.30
82512;BME280;72152;65.012;25.464;2024-01-07T14:59:17;102397.50;;;-10.38;69.46
82512;BME280;72152;65.012;25.464;2024-01-07T15:02:24;102389.43;;;-10.37;69.50
82512;BME280;72152;65.012;25.464;2024-01-07T15:05:34;102375.92;;;-10.37;69.07
82512;BME280;72152;65.012;25.464;2024-01-07T15:08:34;102358.95;;;-10.41;69.37
82512;BME280;72152;65.012;25.464;2024-01-07T15:11:42;102361.08;;;-10.40;69.66
82512;BME280;72152;65.012;25.464;2024-01-07T15:14:46;102370.55;;;-10.39;69.33
82512;BME280;72152;65.012;25.464;2024-01-07T15:17:56;102367.02;;;-10.35;69.52
82512;BME280;72152;65.012;25.464;2024-01-07T15:20:59;102368.23;;;-10.27;70.05
82512;BME280;72152;65.012;25.464;2024-01-07T15:24:10;102367.30;;;-10.16;69.76
82512;BME280;72152;65.012;25.464;2024-01-07T15:27:16;102370.16;;;-10.03;69.90
82512;BME280;72152;65.012;25.464;2024-01-07T15:30:25;102377.36;;;-9.96;69.54
82512;BME280;72152;65.012;25.464;2024-01-07T15:33:23;102383.35;;;-9.88;69.51
82512;BME280;72152;65.012;25.464;2024-01-07T15:36:29;102388.50;;;-9.83;69.46
82512;BME280;72152;65.012;25.464;2024-01-07T15:39:29;102383.31;;;-9.75;69.61
82512;BME280;72152;65.012;25.464;2024-01-07T15:42:28;102386.18;;;-9.67;69.40
82512;BME280;72152;65.012;25.464;2024-01-07T15:45:36;102376.92;;;-9.62;69.38
82512;BME280;72152;65.012;25.464;2024-01-07T15:48:36;102370.55;;;-9.57;69.16
82512;BME280;72152;65.012;25.464;2024-01-07T15:51:31;102362.23;;;-9.57;69.29
82512;BME280;72152;65.012;25.464;2024-01-07T15:54:41;102358.37;;;-9.53;69.61
82512;BME280;72152;65.012;25.464;2024-01-07T15:57:49;102349.66;;;-9.50;69.64
82512;BME280;72152;65.012;25.464;2024-01-07T16:00:57;102344.64;;;-9.51;69.71
82512;BME280;72152;65.012;25.464;2024-01-07T16:04:01;102345.12;;;-9.48;69.54